LEPP/PNA METAR and TAF weather

Enter ICAO airport designator
Station Type Date Time Source
LEPP METAR 2021/09/25 02:30 UTC NOAA

LEPP 250230Z AUTO 11009KT 070V150 CAVOK 17/15 Q1015


Station Type Date Time Source
LEPP Decoded METAR 2021/09/25 02:30 UTC NOAA

Pamplona / Noain, Spain (LEPP) 42-46N 001-38W 453M
Sep 24, 2021 - 10:30 PM EDT / 2021.09.25 0230 UTC
Wind: from the ESE (110 degrees) at 10 MPH (9 KT) (direction variable):0
Visibility: greater than 7 mile(s):0
Temperature: 62 F (17 C)
Dew Point: 59 F (15 C)
Relative Humidity: 88%
Pressure (altimeter): 29.97 in. Hg (1015 hPa)
ob: LEPP 250230Z AUTO 11009KT 070V150 CAVOK 17/15 Q1015
cycle: 2

Station Type Date Time Source
LEPP TAF 2021/09/25 03:27 UTC NOAA

TAF LEPP 250200Z 2503/2603 16009KT 9999 FEW045 TX27/2515Z TN17/2506Z PROB40
TEMPO 2503/2506 VRB15G25KT 3000 TSRA SHRA BKN010 BKN030CB
TEMPO 2510/2519 16015G25KT

Example: see airport list